sensor_id;sensor_type;location;lat;lon;timestamp;pressure;altitude;pressure_sealevel;temperature;humidity
44825;BME280;30542;47.928;2.138;2024-02-04T00:02:44;101987.69;;;20.09;53.60
44825;BME280;30542;47.928;2.138;2024-02-04T00:07:45;101990.59;;;20.08;53.57
44825;BME280;30542;47.928;2.138;2024-02-04T00:12:45;101996.16;;;20.06;53.45
44825;BME280;30542;47.928;2.138;2024-02-04T00:17:46;101990.22;;;20.04;53.27
44825;BME280;30542;47.928;2.138;2024-02-04T00:22:46;101994.75;;;20.04;53.38
44825;BME280;30542;47.928;2.138;2024-02-04T00:27:46;102007.31;;;20.03;53.40
44825;BME280;30542;47.928;2.138;2024-02-04T00:32:47;102005.66;;;20.02;53.30
44825;BME280;30542;47.928;2.138;2024-02-04T00:37:47;102013.69;;;20.02;53.09
44825;BME280;30542;47.928;2.138;2024-02-04T00:42:48;101998.69;;;20.01;53.21
44825;BME280;30542;47.928;2.138;2024-02-04T00:47:48;101992.53;;;20.01;53.08
44825;BME280;30542;47.928;2.138;2024-02-04T00:52:48;102027.28;;;20.01;52.95
44825;BME280;30542;47.928;2.138;2024-02-04T00:57:49;102035.56;;;19.99;53.18
44825;BME280;30542;47.928;2.138;2024-02-04T01:02:49;102031.44;;;19.97;53.05
44825;BME280;30542;47.928;2.138;2024-02-04T01:07:49;102026.34;;;19.95;52.91
44825;BME280;30542;47.928;2.138;2024-02-04T01:12:50;102029.00;;;19.95;53.03
44825;BME280;30542;47.928;2.138;2024-02-04T01:17:50;102042.59;;;19.94;52.90
44825;BME280;30542;47.928;2.138;2024-02-04T01:22:51;102040.13;;;19.92;52.96
44825;BME280;30542;47.928;2.138;2024-02-04T01:27:52;102050.22;;;19.90;53.00
44825;BME280;30542;47.928;2.138;2024-02-04T01:32:52;102049.66;;;19.88;53.07
44825;BME280;30542;47.928;2.138;2024-02-04T01:37:52;102055.00;;;19.88;52.85
44825;BME280;30542;47.928;2.138;2024-02-04T01:42:53;102059.53;;;19.88;52.92
44825;BME280;30542;47.928;2.138;2024-02-04T01:47:54;102053.19;;;19.82;52.72
44825;BME280;30542;47.928;2.138;2024-02-04T01:52:54;102054.63;;;19.84;52.88
44825;BME280;30542;47.928;2.138;2024-02-04T01:57:55;102051.13;;;19.84;52.74
44825;BME280;30542;47.928;2.138;2024-02-04T02:02:56;102053.19;;;19.82;52.89
44825;BME280;30542;47.928;2.138;2024-02-04T02:07:57;102058.19;;;19.78;52.83
44825;BME280;30542;47.928;2.138;2024-02-04T02:13:06;102055.69;;;19.77;52.76
44825;BME280;30542;47.928;2.138;2024-02-04T02:18:11;102038.03;;;19.76;52.73
44825;BME280;30542;47.928;2.138;2024-02-04T02:23:30;102027.78;;;19.73;52.66
44825;BME280;30542;47.928;2.138;2024-02-04T02:28:31;102020.19;;;19.70;52.74
44825;BME280;30542;47.928;2.138;2024-02-04T02:33:31;102007.06;;;19.68;52.96
44825;BME280;30542;47.928;2.138;2024-02-04T02:38:46;102003.56;;;19.68;52.85
44825;BME280;30542;47.928;2.138;2024-02-04T02:43:51;101984.69;;;19.63;52.82
44825;BME280;30542;47.928;2.138;2024-02-04T02:48:53;101975.47;;;19.58;52.78
44825;BME280;30542;47.928;2.138;2024-02-04T02:53:53;101977.91;;;19.60;52.81
44825;BME280;30542;47.928;2.138;2024-02-04T02:58:53;101976.28;;;19.59;52.56
44825;BME280;30542;47.928;2.138;2024-02-04T03:03:54;101962.09;;;19.58;52.60
44825;BME280;30542;47.928;2.138;2024-02-04T03:08:54;101967.44;;;19.58;52.78
44825;BME280;30542;47.928;2.138;2024-02-04T03:13:55;101961.56;;;19.50;52.30
44825;BME280;30542;47.928;2.138;2024-02-04T03:18:55;101960.91;;;19.54;52.76
44825;BME280;30542;47.928;2.138;2024-02-04T03:23:55;101962.97;;;19.52;52.47
44825;BME280;30542;47.928;2.138;2024-02-04T03:28:56;101970.97;;;19.52;52.34
44825;BME280;30542;47.928;2.138;2024-02-04T03:33:56;101957.69;;;19.46;52.53
44825;BME280;30542;47.928;2.138;2024-02-04T03:38:57;101965.03;;;19.50;52.25
44825;BME280;30542;47.928;2.138;2024-02-04T03:43:57;101969.78;;;19.48;52.46
44825;BME280;30542;47.928;2.138;2024-02-04T03:48:57;101954.56;;;19.49;52.34
44825;BME280;30542;47.928;2.138;2024-02-04T03:53:58;101948.63;;;19.47;52.49
44825;BME280;30542;47.928;2.138;2024-02-04T03:58:58;101961.19;;;19.46;52.07
44825;BME280;30542;47.928;2.138;2024-02-04T04:03:59;101965.91;;;19.44;52.17
44825;BME280;30542;47.928;2.138;2024-02-04T04:08:59;101965.09;;;19.44;52.40
44825;BME280;30542;47.928;2.138;2024-02-04T04:14:00;101960.78;;;19.43;52.33
44825;BME280;30542;47.928;2.138;2024-02-04T04:19:00;101959.97;;;19.42;51.99
44825;BME280;30542;47.928;2.138;2024-02-04T04:24:00;101969.88;;;19.42;51.96
44825;BME280;30542;47.928;2.138;2024-02-04T04:29:01;101967.38;;;19.40;51.91
44825;BME280;30542;47.928;2.138;2024-02-04T04:34:01;101971.09;;;19.39;52.12
44825;BME280;30542;47.928;2.138;2024-02-04T04:39:02;101976.06;;;19.35;52.08
44825;BME280;30542;47.928;2.138;2024-02-04T04:44:03;101981.22;;;19.37;52.04
44825;BME280;30542;47.928;2.138;2024-02-04T04:49:03;101981.22;;;19.37;51.91
44825;BME280;30542;47.928;2.138;2024-02-04T04:54:03;101986.31;;;19.38;51.78
44825;BME280;30542;47.928;2.138;2024-02-04T04:59:04;101985.88;;;19.42;51.59
44825;BME280;30542;47.928;2.138;2024-02-04T05:04:04;101988.34;;;19.43;51.81
44825;BME280;30542;47.928;2.138;2024-02-04T05:09:04;102002.91;;;19.47;51.68
44825;BME280;30542;47.928;2.138;2024-02-04T05:14:05;102007.00;;;19.50;51.46
44825;BME280;30542;47.928;2.138;2024-02-04T05:19:07;102001.56;;;19.56;51.57
44825;BME280;30542;47.928;2.138;2024-02-04T05:24:07;101996.78;;;19.65;51.47
44825;BME280;30542;47.928;2.138;2024-02-04T05:29:08;101995.25;;;19.76;51.29
44825;BME280;30542;47.928;2.138;2024-02-04T05:34:09;101981.59;;;19.84;51.12
44825;BME280;30542;47.928;2.138;2024-02-04T05:39:13;101975.72;;;19.94;51.02
44825;BME280;30542;47.928;2.138;2024-02-04T05:44:14;101982.06;;;19.99;50.70
44825;BME280;30542;47.928;2.138;2024-02-04T05:49:14;101982.41;;;20.03;50.54
44825;BME280;30542;47.928;2.138;2024-02-04T05:54:15;101979.44;;;20.11;50.50
44825;BME280;30542;47.928;2.138;2024-02-04T05:59:15;101972.38;;;20.17;50.39
44825;BME280;30542;47.928;2.138;2024-02-04T06:04:16;101981.38;;;20.22;50.27
44825;BME280;30542;47.928;2.138;2024-02-04T06:09:17;101987.09;;;20.26;50.21
44825;BME280;30542;47.928;2.138;2024-02-04T06:14:17;101986.16;;;20.32;49.90
44825;BME280;30542;47.928;2.138;2024-02-04T06:19:18;101993.75;;;20.35;49.95
44825;BME280;30542;47.928;2.138;2024-02-04T06:24:18;102002.16;;;20.39;49.67
44825;BME280;30542;47.928;2.138;2024-02-04T06:29:20;102014.84;;;20.43;49.60
44825;BME280;30542;47.928;2.138;2024-02-04T06:34:20;101999.16;;;20.47;49.48
44825;BME280;30542;47.928;2.138;2024-02-04T06:39:21;102000.63;;;20.49;49.37
44825;BME280;30542;47.928;2.138;2024-02-04T06:44:21;102006.09;;;20.54;49.36
44825;BME280;30542;47.928;2.138;2024-02-04T06:49:21;102005.66;;;20.57;49.27
44825;BME280;30542;47.928;2.138;2024-02-04T06:54:25;102007.28;;;20.58;49.19
44825;BME280;30542;47.928;2.138;2024-02-04T06:59:25;102003.31;;;20.61;49.27
44825;BME280;30542;47.928;2.138;2024-02-04T07:04:26;101990.41;;;20.58;49.21
44825;BME280;30542;47.928;2.138;2024-02-04T07:09:26;101995.44;;;20.66;49.13
44825;BME280;30542;47.928;2.138;2024-02-04T07:14:27;101995.22;;;20.68;48.96
44825;BME280;30542;47.928;2.138;2024-02-04T07:19:27;102001.16;;;20.70;48.81
44825;BME280;30542;47.928;2.138;2024-02-04T07:24:27;102007.09;;;20.72;48.82
44825;BME280;30542;47.928;2.138;2024-02-04T07:29:28;101998.00;;;20.73;48.91
44825;BME280;30542;47.928;2.138;2024-02-04T07:34:28;102008.28;;;20.76;48.86
44825;BME280;30542;47.928;2.138;2024-02-04T07:39:29;102008.88;;;20.78;48.95
44825;BME280;30542;47.928;2.138;2024-02-04T07:44:30;102005.16;;;20.79;48.93
44825;BME280;30542;47.928;2.138;2024-02-04T07:49:31;102006.53;;;20.81;49.01
44825;BME280;30542;47.928;2.138;2024-02-04T07:54:31;102009.22;;;20.81;49.04
44825;BME280;30542;47.928;2.138;2024-02-04T07:59:32;102018.66;;;20.84;49.23
44825;BME280;30542;47.928;2.138;2024-02-04T08:04:32;102013.91;;;20.86;49.14
44825;BME280;30542;47.928;2.138;2024-02-04T08:09:33;102015.53;;;20.87;49.08
44825;BME280;30542;47.928;2.138;2024-02-04T08:14:33;102008.19;;;20.82;49.24
44825;BME280;30542;47.928;2.138;2024-02-04T08:19:33;102014.50;;;20.88;49.15
44825;BME280;30542;47.928;2.138;2024-02-04T08:24:35;102005.41;;;20.89;49.08
44825;BME280;30542;47.928;2.138;2024-02-04T08:29:36;102008.09;;;20.89;49.12
44825;BME280;30542;47.928;2.138;2024-02-04T08:34:36;102012.41;;;20.90;49.17
44825;BME280;30542;47.928;2.138;2024-02-04T08:39:37;102015.66;;;20.92;49.45
44825;BME280;30542;47.928;2.138;2024-02-04T08:44:37;102019.97;;;20.93;49.46
44825;BME280;30542;47.928;2.138;2024-02-04T08:49:38;102018.72;;;20.96;49.80
44825;BME280;30542;47.928;2.138;2024-02-04T08:54:38;102017.56;;;21.03;49.95
44825;BME280;30542;47.928;2.138;2024-02-04T08:59:38;102016.53;;;21.04;50.16
44825;BME280;30542;47.928;2.138;2024-02-04T09:04:39;102002.75;;;21.01;50.21
44825;BME280;30542;47.928;2.138;2024-02-04T09:09:40;102027.00;;;21.06;50.21
44825;BME280;30542;47.928;2.138;2024-02-04T09:14:41;102025.13;;;21.06;50.05
44825;BME280;30542;47.928;2.138;2024-02-04T09:19:42;102019.56;;;21.08;50.12
44825;BME280;30542;47.928;2.138;2024-02-04T09:24:42;102024.09;;;21.07;50.01
44825;BME280;30542;47.928;2.138;2024-02-04T09:29:43;102021.44;;;21.07;49.98
44825;BME280;30542;47.928;2.138;2024-02-04T09:34:43;102027.00;;;21.06;50.00
44825;BME280;30542;47.928;2.138;2024-02-04T09:39:43;102028.50;;;21.02;50.24
44825;BME280;30542;47.928;2.138;2024-02-04T09:44:44;102032.34;;;21.06;50.63
44825;BME280;30542;47.928;2.138;2024-02-04T09:49:45;102039.69;;;21.10;51.66
44825;BME280;30542;47.928;2.138;2024-02-04T09:54:48;102038.19;;;21.15;52.41
44825;BME280;30542;47.928;2.138;2024-02-04T09:59:49;102031.44;;;21.12;52.16
44825;BME280;30542;47.928;2.138;2024-02-04T10:04:50;102039.50;;;21.12;51.10
44825;BME280;30542;47.928;2.138;2024-02-04T10:09:50;102037.63;;;21.13;51.02
44825;BME280;30542;47.928;2.138;2024-02-04T10:14:51;102044.03;;;21.12;50.83
44825;BME280;30542;47.928;2.138;2024-02-04T10:19:51;102039.50;;;21.12;51.22
44825;BME280;30542;47.928;2.138;2024-02-04T10:24:51;102034.59;;;21.09;51.31
44825;BME280;30542;47.928;2.138;2024-02-04T10:29:52;102040.88;;;21.15;51.45
44825;BME280;30542;47.928;2.138;2024-02-04T10:34:53;102032.03;;;21.14;51.58
44825;BME280;30542;47.928;2.138;2024-02-04T10:39:53;102033.06;;;21.13;51.53
44825;BME280;30542;47.928;2.138;2024-02-04T10:44:54;102036.94;;;21.17;51.46
44825;BME280;30542;47.928;2.138;2024-02-04T10:49:57;102038.81;;;21.17;51.54
44825;BME280;30542;47.928;2.138;2024-02-04T10:54:59;102033.00;;;21.20;51.59
44825;BME280;30542;47.928;2.138;2024-02-04T11:00:00;102034.84;;;21.19;51.69
44825;BME280;30542;47.928;2.138;2024-02-04T11:05:05;102029.25;;;21.21;51.73
44825;BME280;30542;47.928;2.138;2024-02-04T11:10:06;102035.66;;;21.20;51.89
44825;BME280;30542;47.928;2.138;2024-02-04T11:15:09;102008.59;;;21.09;51.91
44825;BME280;30542;47.928;2.138;2024-02-04T11:30:45;102011.31;;;21.21;52.05
44825;BME280;30542;47.928;2.138;2024-02-04T11:35:46;102005.72;;;21.23;51.92
44825;BME280;30542;47.928;2.138;2024-02-04T11:40:47;102003.84;;;21.23;52.02
44825;BME280;30542;47.928;2.138;2024-02-04T11:45:47;101993.97;;;21.24;51.87
44825;BME280;30542;47.928;2.138;2024-02-04T11:50:58;101995.59;;;21.25;51.73
44825;BME280;30542;47.928;2.138;2024-02-04T11:56:00;101994.19;;;21.22;51.60
44825;BME280;30542;47.928;2.138;2024-02-04T12:01:01;101981.94;;;21.26;51.55
44825;BME280;30542;47.928;2.138;2024-02-04T12:06:03;101974.97;;;21.25;51.46
44825;BME280;30542;47.928;2.138;2024-02-04T12:11:04;101974.97;;;21.25;51.42
44825;BME280;30542;47.928;2.138;2024-02-04T12:16:06;101972.03;;;21.27;51.25
44825;BME280;30542;47.928;2.138;2024-02-04T12:21:08;101970.16;;;21.27;51.29
44825;BME280;30542;47.928;2.138;2024-02-04T12:26:09;101967.75;;;21.26;51.15
44825;BME280;30542;47.928;2.138;2024-02-04T12:31:19;101970.41;;;21.26;51.34
44825;BME280;30542;47.928;2.138;2024-02-04T12:36:20;101966.13;;;21.25;51.33
44825;BME280;30542;47.928;2.138;2024-02-04T12:41:24;101963.44;;;21.25;51.27
44825;BME280;30542;47.928;2.138;2024-02-04T12:46:24;101957.81;;;21.26;51.22
44825;BME280;30542;47.928;2.138;2024-02-04T12:51:30;101958.88;;;21.25;51.15
44825;BME280;30542;47.928;2.138;2024-02-04T12:56:51;101955.38;;;21.25;51.13
44825;BME280;30542;47.928;2.138;2024-02-04T13:01:57;101945.72;;;21.24;51.22
44825;BME280;30542;47.928;2.138;2024-02-04T13:06:58;101940.38;;;21.24;51.09
44825;BME280;30542;47.928;2.138;2024-02-04T13:12:08;101942.00;;;21.25;50.99
44825;BME280;30542;47.928;2.138;2024-02-04T13:17:09;101930.47;;;21.24;50.96
44825;BME280;30542;47.928;2.138;2024-02-04T13:22:10;101927.78;;;21.24;50.89
44825;BME280;30542;47.928;2.138;2024-02-04T13:27:10;101924.28;;;21.24;50.76
44825;BME280;30542;47.928;2.138;2024-02-04T13:32:11;101924.28;;;21.24;50.63
44825;BME280;30542;47.928;2.138;2024-02-04T13:37:11;101918.94;;;21.24;50.58
44825;BME280;30542;47.928;2.138;2024-02-04T13:42:12;101898.75;;;21.21;50.32
44825;BME280;30542;47.928;2.138;2024-02-04T13:47:12;101891.44;;;21.17;50.48
44825;BME280;30542;47.928;2.138;2024-02-04T13:52:12;101898.06;;;21.14;50.64
44825;BME280;30542;47.928;2.138;2024-02-04T13:57:13;101885.47;;;21.15;50.46
44825;BME280;30542;47.928;2.138;2024-02-04T14:02:13;101883.63;;;21.15;50.29
44825;BME280;30542;47.928;2.138;2024-02-04T14:07:14;101887.13;;;21.16;50.34
44825;BME280;30542;47.928;2.138;2024-02-04T14:12:14;101886.41;;;21.20;50.40
44825;BME280;30542;47.928;2.138;2024-02-04T14:17:14;101888.03;;;21.21;50.27
44825;BME280;30542;47.928;2.138;2024-02-04T14:22:15;101880.81;;;21.22;50.19
44825;BME280;30542;47.928;2.138;2024-02-04T14:27:17;101878.13;;;21.22;49.90
44825;BME280;30542;47.928;2.138;2024-02-04T14:32:18;101865.44;;;21.17;50.00
44825;BME280;30542;47.928;2.138;2024-02-04T14:37:19;101878.13;;;21.22;49.90
44825;BME280;30542;47.928;2.138;2024-02-04T14:42:19;101872.78;;;21.22;49.70
44825;BME280;30542;47.928;2.138;2024-02-04T14:47:19;101872.78;;;21.22;49.60
44825;BME280;30542;47.928;2.138;2024-02-04T14:52:20;101868.22;;;21.22;49.46
44825;BME280;30542;47.928;2.138;2024-02-04T14:57:20;101874.66;;;21.21;49.39
44825;BME280;30542;47.928;2.138;2024-02-04T15:02:20;101880.81;;;21.22;49.35
44825;BME280;30542;47.928;2.138;2024-02-04T15:07:21;101877.31;;;21.21;49.07
44825;BME280;30542;47.928;2.138;2024-02-04T15:12:21;101885.94;;;21.23;49.13
44825;BME280;30542;47.928;2.138;2024-02-04T15:17:22;101879.75;;;21.23;49.33
44825;BME280;30542;47.928;2.138;2024-02-04T15:22:23;101885.94;;;21.23;49.16
44825;BME280;30542;47.928;2.138;2024-02-04T15:27:27;101863.00;;;21.16;49.28
44825;BME280;30542;47.928;2.138;2024-02-04T15:32:30;101871.97;;;21.21;49.34
44825;BME280;30542;47.928;2.138;2024-02-04T15:37:31;101881.41;;;21.24;49.12
44825;BME280;30542;47.928;2.138;2024-02-04T15:42:31;101883.03;;;21.25;49.11
44825;BME280;30542;47.928;2.138;2024-02-04T15:47:32;101885.72;;;21.25;49.13
44825;BME280;30542;47.928;2.138;2024-02-04T15:52:32;101884.78;;;21.19;49.06
44825;BME280;30542;47.928;2.138;2024-02-04T15:57:33;101874.53;;;21.16;49.07
44825;BME280;30542;47.928;2.138;2024-02-04T16:02:37;101876.16;;;21.17;49.07
44825;BME280;30542;47.928;2.138;2024-02-04T16:07:38;101879.53;;;21.24;48.88
44825;BME280;30542;47.928;2.138;2024-02-04T16:12:39;101877.69;;;21.25;48.95
44825;BME280;30542;47.928;2.138;2024-02-04T16:17:42;101877.44;;;21.26;48.89
44825;BME280;30542;47.928;2.138;2024-02-04T16:22:42;101885.72;;;21.25;48.89
44825;BME280;30542;47.928;2.138;2024-02-04T16:27:43;101885.72;;;21.25;48.78
44825;BME280;30542;47.928;2.138;2024-02-04T16:32:45;101884.91;;;21.24;48.87
44825;BME280;30542;47.928;2.138;2024-02-04T16:37:45;101866.72;;;21.15;48.55
44825;BME280;30542;47.928;2.138;2024-02-04T16:42:46;101886.78;;;21.24;48.77
44825;BME280;30542;47.928;2.138;2024-02-04T16:47:47;101887.59;;;21.24;48.78
44825;BME280;30542;47.928;2.138;2024-02-04T16:52:47;101896.44;;;21.25;48.61
44825;BME280;30542;47.928;2.138;2024-02-04T16:57:47;101891.88;;;21.25;48.61
44825;BME280;30542;47.928;2.138;2024-02-04T17:02:48;101889.22;;;21.25;48.67
44825;BME280;30542;47.928;2.138;2024-02-04T17:07:49;101901.78;;;21.25;48.54
44825;BME280;30542;47.928;2.138;2024-02-04T17:12:49;101901.19;;;21.23;48.46
44825;BME280;30542;47.928;2.138;2024-02-04T17:17:59;101903.88;;;21.23;48.25
44825;BME280;30542;47.928;2.138;2024-02-04T17:23:07;101913.56;;;21.24;48.26
44825;BME280;30542;47.928;2.138;2024-02-04T17:28:09;101918.94;;;21.24;48.47
44825;BME280;30542;47.928;2.138;2024-02-04T17:33:10;101920.56;;;21.25;48.52
44825;BME280;30542;47.928;2.138;2024-02-04T17:38:11;101913.88;;;21.27;48.65
44825;BME280;30542;47.928;2.138;2024-02-04T17:43:11;101919.59;;;21.31;48.57
44825;BME280;30542;47.928;2.138;2024-02-04T17:48:12;101917.56;;;21.33;48.71
44825;BME280;30542;47.928;2.138;2024-02-04T17:53:13;101912.75;;;21.35;48.69
44825;BME280;30542;47.928;2.138;2024-02-04T17:58:14;101920.34;;;21.38;48.43
44825;BME280;30542;47.928;2.138;2024-02-04T18:03:14;101914.63;;;21.34;48.54
44825;BME280;30542;47.928;2.138;2024-02-04T18:08:14;101924.19;;;21.42;48.44
44825;BME280;30542;47.928;2.138;2024-02-04T18:13:15;101922.66;;;21.46;48.62
44825;BME280;30542;47.928;2.138;2024-02-04T18:18:15;101918.94;;;21.47;48.83
44825;BME280;30542;47.928;2.138;2024-02-04T18:23:16;101919.75;;;21.48;48.61
44825;BME280;30542;47.928;2.138;2024-02-04T18:28:16;101917.31;;;21.46;48.62
44825;BME280;30542;47.928;2.138;2024-02-04T18:33:16;101909.03;;;21.48;48.73
44825;BME280;30542;47.928;2.138;2024-02-04T18:38:17;101910.66;;;21.49;48.46
44825;BME280;30542;47.928;2.138;2024-02-04T18:43:17;101906.13;;;21.49;48.33
44825;BME280;30542;47.928;2.138;2024-02-04T18:48:18;101910.66;;;21.49;48.17
44825;BME280;30542;47.928;2.138;2024-02-04T18:53:18;101909.84;;;21.48;48.68
44825;BME280;30542;47.928;2.138;2024-02-04T18:58:19;101884.94;;;21.36;49.17
44825;BME280;30542;47.928;2.138;2024-02-04T19:03:20;101910.78;;;21.54;49.17
44825;BME280;30542;47.928;2.138;2024-02-04T19:08:20;101907.63;;;21.57;49.00
44825;BME280;30542;47.928;2.138;2024-02-04T19:13:21;101915.44;;;21.58;48.69
44825;BME280;30542;47.928;2.138;2024-02-04T19:18:21;101907.84;;;21.55;48.43
44825;BME280;30542;47.928;2.138;2024-02-04T19:23:22;101904.59;;;21.53;48.41
44825;BME280;30542;47.928;2.138;2024-02-04T19:28:22;101908.09;;;21.54;48.27
44825;BME280;30542;47.928;2.138;2024-02-04T19:33:23;101911.59;;;21.54;48.17
44825;BME280;30542;47.928;2.138;2024-02-04T19:38:23;101915.53;;;21.52;48.35
44825;BME280;30542;47.928;2.138;2024-02-04T19:43:24;101906.69;;;21.51;48.12
44825;BME280;30542;47.928;2.138;2024-02-04T19:48:29;101904.00;;;21.51;48.11
44825;BME280;30542;47.928;2.138;2024-02-04T19:53:29;101903.44;;;21.49;48.01
44825;BME280;30542;47.928;2.138;2024-02-04T19:58:30;101906.13;;;21.49;48.27
44825;BME280;30542;47.928;2.138;2024-02-04T20:03:30;101903.66;;;21.48;48.02
44825;BME280;30542;47.928;2.138;2024-02-04T20:08:30;101897.47;;;21.47;48.10
44825;BME280;30542;47.928;2.138;2024-02-04T20:13:31;101888.88;;;21.45;48.14
44825;BME280;30542;47.928;2.138;2024-02-04T20:18:33;101887.25;;;21.44;48.07
44825;BME280;30542;47.928;2.138;2024-02-04T20:23:34;101885.03;;;21.41;48.01
44825;BME280;30542;47.928;2.138;2024-02-04T20:28:35;101876.66;;;21.38;48.00
44825;BME280;30542;47.928;2.138;2024-02-04T20:33:35;101879.88;;;21.40;47.86
44825;BME280;30542;47.928;2.138;2024-02-04T20:38:42;101885.03;;;21.41;47.93
44825;BME280;30542;47.928;2.138;2024-02-04T20:43:43;101878.50;;;21.37;47.95
44825;BME280;30542;47.928;2.138;2024-02-04T20:48:46;101893.06;;;21.41;47.90
44825;BME280;30542;47.928;2.138;2024-02-04T20:53:47;101893.06;;;21.41;47.86
44825;BME280;30542;47.928;2.138;2024-02-04T20:58:47;101893.06;;;21.41;47.88
44825;BME280;30542;47.928;2.138;2024-02-04T21:03:48;101882.34;;;21.41;47.81
44825;BME280;30542;47.928;2.138;2024-02-04T21:08:48;101885.03;;;21.41;47.59
44825;BME280;30542;47.928;2.138;2024-02-04T21:13:49;101853.56;;;21.25;47.96
44825;BME280;30542;47.928;2.138;2024-02-04T21:18:50;101880.50;;;21.42;47.68
44825;BME280;30542;47.928;2.138;2024-02-04T21:23:50;101878.06;;;21.40;47.56
44825;BME280;30542;47.928;2.138;2024-02-04T21:28:50;101874.31;;;21.41;47.54
44825;BME280;30542;47.928;2.138;2024-02-04T21:33:51;101880.50;;;21.42;47.42
44825;BME280;30542;47.928;2.138;2024-02-04T21:38:51;101866.28;;;21.41;47.41
44825;BME280;30542;47.928;2.138;2024-02-04T21:43:52;101867.78;;;21.37;47.42
44825;BME280;30542;47.928;2.138;2024-02-04T21:48:52;101872.09;;;21.38;47.67
44825;BME280;30542;47.928;2.138;2024-02-04T21:53:52;101877.22;;;21.40;47.59
44825;BME280;30542;47.928;2.138;2024-02-04T21:58:53;101882.00;;;21.38;47.57
44825;BME280;30542;47.928;2.138;2024-02-04T22:03:53;101880.38;;;21.37;47.58
44825;BME280;30542;47.928;2.138;2024-02-04T22:08:53;101874.66;;;21.33;47.66
44825;BME280;30542;47.928;2.138;2024-02-04T22:13:54;101883.38;;;21.28;47.70
44825;BME280;30542;47.928;2.138;2024-02-04T22:18:55;101885.47;;;21.26;47.89
44825;BME280;30542;47.928;2.138;2024-02-04T22:23:56;101883.03;;;21.25;47.84
44825;BME280;30542;47.928;2.138;2024-02-04T22:28:56;101877.56;;;21.20;47.74
44825;BME280;30542;47.928;2.138;2024-02-04T22:33:57;101886.06;;;21.17;47.75
44825;BME280;30542;47.928;2.138;2024-02-04T22:38:57;101897.25;;;21.14;47.64
44825;BME280;30542;47.928;2.138;2024-02-04T22:43:57;101884.91;;;21.13;47.52
44825;BME280;30542;47.928;2.138;2024-02-04T22:48:58;101889.34;;;21.07;47.58
44825;BME280;30542;47.928;2.138;2024-02-04T22:53:58;101883.38;;;21.05;47.53
44825;BME280;30542;47.928;2.138;2024-02-04T22:58:59;101885.69;;;21.01;47.50
44825;BME280;30542;47.928;2.138;2024-02-04T23:03:59;101888.63;;;21.00;47.49
44825;BME280;30542;47.928;2.138;2024-02-04T23:08:59;101887.47;;;20.96;47.56
44825;BME280;30542;47.928;2.138;2024-02-04T23:14:00;101886.84;;;20.94;47.36
44825;BME280;30542;47.928;2.138;2024-02-04T23:19:01;101880.94;;;20.92;47.55
44825;BME280;30542;47.928;2.138;2024-02-04T23:24:01;101886.53;;;20.90;47.31
44825;BME280;30542;47.928;2.138;2024-02-04T23:29:02;101882.44;;;20.88;47.45
44825;BME280;30542;47.928;2.138;2024-02-04T23:34:02;101886.19;;;20.87;47.72
44825;BME280;30542;47.928;2.138;2024-02-04T23:39:02;101874.28;;;20.82;47.61
44825;BME280;30542;47.928;2.138;2024-02-04T23:44:06;101871.81;;;20.81;47.78
44825;BME280;30542;47.928;2.138;2024-02-04T23:49:07;101877.66;;;20.78;47.66
44825;BME280;30542;47.928;2.138;2024-02-04T23:54:08;101880.81;;;20.75;47.86
44825;BME280;30542;47.928;2.138;2024-02-04T23:59:08;101877.53;;;20.73;47.96
